createdAt,value
2023-04-27T00:02:42.275Z,-140.75
2023-04-27T00:05:45.044Z,-140.75
2023-04-27T00:08:47.535Z,-140.75
2023-04-27T00:11:49.990Z,-140.75
2023-04-27T00:14:52.556Z,-140.75
2023-04-27T00:17:55.515Z,-140.75
2023-04-27T00:20:58.855Z,-140.75
2023-04-27T00:24:01.525Z,-140.75
2023-04-27T00:27:04.027Z,-140.75
2023-04-27T00:30:07.088Z,-140.75
2023-04-27T00:33:09.964Z,-140.75
2023-04-27T00:36:12.453Z,-140.75
2023-04-27T00:39:17.131Z,-140.75
2023-04-27T00:42:19.977Z,-140.75
2023-04-27T00:45:26.771Z,-140.75
2023-04-27T00:48:29.283Z,-140.75
2023-04-27T00:51:32.221Z,-140.75
2023-04-27T00:54:34.706Z,-140.75
2023-04-27T00:57:37.380Z,-140.75
2023-04-27T01:00:40.347Z,-140.75
2023-04-27T01:03:42.990Z,-140.75
2023-04-27T01:06:45.730Z,-140.75
2023-04-27T01:09:48.458Z,-140.75
2023-04-27T01:12:51.511Z,-140.75
2023-04-27T01:15:54.015Z,-140.75
2023-04-27T01:18:56.846Z,-140.75
2023-04-27T01:22:00.378Z,-140.75
2023-04-27T01:25:02.923Z,-140.75
2023-04-27T01:28:06.866Z,-140.75
2023-04-27T01:31:11.424Z,-140.75
2023-04-27T01:34:14.061Z,-140.75
2023-04-27T01:37:16.542Z,-140.75
2023-04-27T01:40:19.406Z,-140.75
2023-04-27T01:43:22.867Z,-140.75
2023-04-27T01:46:25.491Z,-140.75
2023-04-27T01:49:28.156Z,-140.75
2023-04-27T01:52:31.982Z,-140.75
2023-04-27T01:55:34.417Z,-140.75
2023-04-27T01:58:37.851Z,-140.75
2023-04-27T02:01:41.311Z,-140.75
2023-04-27T02:04:45.251Z,-140.75
2023-04-27T02:07:49.461Z,-140.75
2023-04-27T02:10:51.895Z,-140.75
2023-04-27T02:13:55.868Z,-140.75
2023-04-27T02:17:06.899Z,-140.75
2023-04-27T02:20:10.964Z,-140.75
2023-04-27T02:23:13.679Z,-140.75
2023-04-27T02:26:19.587Z,-140.75
2023-04-27T02:29:22.781Z,-140.75
2023-04-27T02:32:26.033Z,-140.75
2023-04-27T02:35:28.501Z,-140.75
2023-04-27T02:38:31.576Z,-140.75
2023-04-27T02:41:34.059Z,-140.75
2023-04-27T02:44:36.478Z,-140.75
2023-04-27T02:47:39.059Z,-140.75
2023-04-27T02:50:45.141Z,-140.75
2023-04-27T02:53:48.179Z,-140.75
2023-04-27T02:56:50.888Z,-140.75
2023-04-27T02:59:53.651Z,-140.75
2023-04-27T03:02:57.018Z,-140.75
2023-04-27T03:05:59.529Z,-140.75
2023-04-27T03:09:05.505Z,-140.75
2023-04-27T03:12:08.158Z,-140.75
2023-04-27T03:15:10.838Z,-140.75
2023-04-27T03:18:13.328Z,-140.75
2023-04-27T03:21:17.093Z,-140.75
2023-04-27T03:24:19.559Z,-140.75
2023-04-27T03:27:22.036Z,-140.75
2023-04-27T03:30:26.483Z,-140.75
2023-04-27T03:33:29.949Z,-140.75
2023-04-27T03:36:32.457Z,-140.75
2023-04-27T03:39:34.855Z,-140.75
2023-04-27T03:42:37.731Z,-140.75
2023-04-27T03:45:40.550Z,-140.75
2023-04-27T03:48:43.994Z,-140.75
2023-04-27T03:51:46.709Z,-140.75
2023-04-27T03:54:50.817Z,-140.75
2023-04-27T03:57:54.115Z,-140.75
2023-04-27T04:00:57.366Z,-140.75
2023-04-27T04:04:00.124Z,-140.75
2023-04-27T04:07:02.743Z,-140.75
2023-04-27T04:10:06.131Z,-140.75
2023-04-27T04:13:09.114Z,-140.75
2023-04-27T04:16:12.585Z,-140.75
2023-04-27T04:19:15.482Z,-140.75
2023-04-27T04:22:18.333Z,-140.75
2023-04-27T04:25:22.294Z,-140.75
2023-04-27T04:28:25.315Z,-140.75
2023-04-27T04:31:28.107Z,-140.75
2023-04-27T04:34:31.380Z,-140.75
2023-04-27T04:37:35.448Z,-140.75
2023-04-27T04:40:39.263Z,-140.75
2023-04-27T04:43:42.305Z,-140.75
2023-04-27T04:46:45.084Z,-140.75
2023-04-27T04:49:47.597Z,-140.75
2023-04-27T04:52:50.284Z,-140.75
2023-04-27T04:55:52.804Z,-140.75
2023-04-27T04:58:55.416Z,-140.75
2023-04-27T05:01:58.199Z,-140.75
2023-04-27T05:05:00.862Z,-140.75
2023-04-27T05:08:03.503Z,-140.75
2023-04-27T05:11:06.076Z,-140.75
2023-04-27T05:14:08.703Z,-140.75
2023-04-27T05:17:11.171Z,-140.75
2023-04-27T05:20:13.763Z,-140.75
2023-04-27T05:23:16.671Z,-140.75
2023-04-27T05:26:21.599Z,-140.75
2023-04-27T05:29:24.120Z,-140.75
2023-04-27T05:32:27.777Z,-140.75
2023-04-27T05:35:31.394Z,-140.75
2023-04-27T05:38:36.070Z,-140.75
2023-04-27T05:41:38.909Z,-140.75
2023-04-27T05:44:41.714Z,-140.75
2023-04-27T05:47:44.414Z,-140.75
2023-04-27T05:50:47.046Z,-140.75
2023-04-27T05:53:50.281Z,-140.75
2023-04-27T05:56:52.907Z,-140.75
2023-04-27T05:59:55.710Z,-140.75
2023-04-27T06:02:58.391Z,-140.75
2023-04-27T06:06:02.639Z,-140.75
2023-04-27T06:09:05.705Z,-140.75
2023-04-27T06:12:09.147Z,-140.75
2023-04-27T06:15:11.804Z,-140.75
2023-04-27T06:18:15.037Z,-140.75
2023-04-27T06:21:18.183Z,-140.75
2023-04-27T06:24:21.860Z,-140.75
2023-04-27T06:27:24.252Z,-140.75
2023-04-27T06:30:26.809Z,-140.75
2023-04-27T06:33:31.458Z,-140.75
2023-04-27T06:36:33.918Z,-140.75
2023-04-27T06:39:37.035Z,-140.75
2023-04-27T06:42:39.467Z,-140.75
2023-04-27T06:45:42.856Z,-140.75
2023-04-27T06:48:46.697Z,-140.75
2023-04-27T06:51:49.651Z,-140.75
2023-04-27T06:54:52.204Z,-140.75
2023-04-27T06:57:54.646Z,-140.75
2023-04-27T07:00:57.085Z,-140.75
2023-04-27T07:03:59.842Z,-140.75
2023-04-27T07:07:02.717Z,-140.75
2023-04-27T07:10:05.924Z,-140.75
2023-04-27T07:13:09.619Z,-140.75
2023-04-27T07:16:13.016Z,-140.75
2023-04-27T07:19:15.899Z,-140.75
2023-04-27T07:22:18.567Z,-140.75
2023-04-27T07:25:21.640Z,-140.75
2023-04-27T07:28:24.187Z,-140.75
2023-04-27T07:31:27.076Z,-140.75
2023-04-27T07:34:41.130Z,-140.75
2023-04-27T07:37:48.016Z,-140.75
2023-04-27T07:40:51.252Z,-140.75
2023-04-27T07:43:53.830Z,-140.75
2023-04-27T07:46:58.591Z,-140.75
2023-04-27T07:50:01.456Z,-140.75
2023-04-27T07:53:04.222Z,-140.75
2023-04-27T07:56:07.044Z,-140.75
2023-04-27T07:59:10.117Z,-140.75
2023-04-27T08:05:21.090Z,-140.75
2023-04-27T08:08:24.634Z,-140.75
2023-04-27T08:11:27.272Z,-140.75
2023-04-27T08:14:29.788Z,-140.75
2023-04-27T08:17:32.337Z,-140.75
2023-04-27T08:20:35.050Z,-140.75
2023-04-27T08:23:38.878Z,-140.75
2023-04-27T08:26:41.842Z,-140.75
2023-04-27T08:29:48.349Z,-140.75
2023-04-27T08:32:51.485Z,-140.75
2023-04-27T08:35:55.748Z,-140.75
2023-04-27T08:38:58.179Z,-140.75
2023-04-27T08:42:00.860Z,-140.75
2023-04-27T08:45:07.221Z,-140.75
2023-04-27T08:48:09.690Z,-140.75
2023-04-27T08:51:16.173Z,-140.75
2023-04-27T08:54:19.483Z,-140.75
2023-04-27T08:57:22.059Z,-140.75
2023-04-27T09:00:26.016Z,-140.75
2023-04-27T09:03:37.859Z,-140.75
2023-04-27T09:06:40.722Z,-140.75
2023-04-27T09:09:44.629Z,-140.75
2023-04-27T09:12:56.257Z,-140.75
2023-04-27T09:15:58.858Z,-140.75
2023-04-27T09:21:49.529Z,15.19
2023-04-27T09:24:53.440Z,15.06
2023-04-27T09:27:58.267Z,15.20
2023-04-27T09:31:03.298Z,14.89
2023-04-27T09:34:06.457Z,15.01
2023-04-27T09:37:10.337Z,14.78
2023-04-27T09:40:13.696Z,14.60
2023-04-27T09:43:16.852Z,14.63
2023-04-27T09:48:51.717Z,15.91
2023-04-27T09:51:59.150Z,16.45
2023-04-27T09:55:03.850Z,16.94
2023-04-27T09:58:34.931Z,16.53
2023-04-27T10:01:47.152Z,15.92
2023-04-27T10:05:05.233Z,15.77
2023-04-27T10:08:10.486Z,15.86
2023-04-27T10:11:19.175Z,14.82
2023-04-27T10:14:24.293Z,15.84
2023-04-27T10:17:37.081Z,16.65
2023-04-27T10:20:40.681Z,17.47
2023-04-27T10:23:51.211Z,17.57
2023-04-27T10:27:03.448Z,17.81
2023-04-27T10:30:11.662Z,16.94
2023-04-27T10:33:22.988Z,17.00
2023-04-27T10:36:35.149Z,16.60
2023-04-27T10:39:46.948Z,16.24
2023-04-27T10:42:51.103Z,16.68
2023-04-27T10:45:53.872Z,17.21
2023-04-27T10:48:57.075Z,17.20
2023-04-27T10:52:05.000Z,20.80
2023-04-27T10:55:21.788Z,23.90
2023-04-27T10:58:28.083Z,24.18
2023-04-27T11:01:35.575Z,25.41
2023-04-27T11:04:40.483Z,26.40
2023-04-27T11:07:43.179Z,25.02
2023-04-27T11:10:50.131Z,25.86
2023-04-27T11:13:53.624Z,21.20
2023-04-27T11:16:56.114Z,19.99
2023-04-27T11:19:58.878Z,23.37
2023-04-27T11:23:01.334Z,23.88
2023-04-27T11:26:17.062Z,21.47
2023-04-27T11:29:19.765Z,20.77
2023-04-27T11:32:24.032Z,19.26
2023-04-27T11:35:34.768Z,19.24
2023-04-27T11:38:37.306Z,23.90
2023-04-27T11:41:45.843Z,26.84
2023-04-27T11:44:56.611Z,23.29
2023-04-27T11:47:59.561Z,21.70
2023-04-27T11:51:02.687Z,20.51
2023-04-27T11:54:06.824Z,19.33
2023-04-27T11:57:10.171Z,18.26
2023-04-27T12:00:14.627Z,18.42
2023-04-27T12:03:17.956Z,19.20
2023-04-27T12:06:33.024Z,21.74
2023-04-27T12:09:36.227Z,24.26
2023-04-27T12:12:39.525Z,24.31
2023-04-27T12:15:42.807Z,21.35
2023-04-27T12:18:45.592Z,20.61
2023-04-27T12:21:48.638Z,19.77
2023-04-27T12:24:51.339Z,19.82
2023-04-27T12:27:54.009Z,19.27
2023-04-27T12:30:56.628Z,19.26
2023-04-27T12:33:59.231Z,18.60
2023-04-27T12:37:01.694Z,18.41
2023-04-27T12:40:09.077Z,17.88
2023-04-27T12:43:12.901Z,18.38
2023-04-27T12:46:15.431Z,18.31
2023-04-27T12:49:18.048Z,20.05
2023-04-27T12:52:20.815Z,19.22
2023-04-27T12:55:33.147Z,18.61
2023-04-27T12:58:37.056Z,18.34
2023-04-27T13:01:39.784Z,18.04
2023-04-27T13:04:42.490Z,17.87
2023-04-27T13:07:44.991Z,17.74
2023-04-27T13:10:47.582Z,21.74
2023-04-27T13:13:50.231Z,26.25
2023-04-27T13:16:52.714Z,27.02
2023-04-27T13:19:55.279Z,27.60
2023-04-27T13:22:57.934Z,28.64
2023-04-27T13:26:01.201Z,29.24
2023-04-27T13:29:04.889Z,30.01
2023-04-27T13:32:07.603Z,31.93
2023-04-27T13:35:10.784Z,31.87
2023-04-27T13:38:13.200Z,31.89
2023-04-27T13:41:16.753Z,29.67
2023-04-27T13:44:20.336Z,28.51
2023-04-27T13:47:23.095Z,28.08
2023-04-27T13:50:25.752Z,29.55
2023-04-27T13:53:28.639Z,30.45
2023-04-27T13:56:31.594Z,31.46
2023-04-27T13:59:34.063Z,30.17
2023-04-27T14:02:36.955Z,26.55
2023-04-27T14:05:39.535Z,26.62
2023-04-27T14:08:41.963Z,26.46
2023-04-27T14:11:55.722Z,28.93
2023-04-27T14:14:59.926Z,30.05
2023-04-27T14:18:06.417Z,31.28
2023-04-27T14:21:09.539Z,28.36
2023-04-27T14:24:12.062Z,27.82
2023-04-27T14:27:16.294Z,28.66
2023-04-27T14:30:18.842Z,29.78
2023-04-27T14:33:21.391Z,29.73
2023-04-27T14:36:23.763Z,30.72
2023-04-27T14:39:28.194Z,29.52
2023-04-27T14:42:31.754Z,30.37
2023-04-27T14:45:44.133Z,30.72
2023-04-27T14:48:53.155Z,30.31
2023-04-27T14:51:55.682Z,30.33
2023-04-27T14:54:59.376Z,29.00
2023-04-27T14:58:01.927Z,26.27
2023-04-27T15:01:04.399Z,26.17
2023-04-27T15:04:11.083Z,24.92
2023-04-27T15:07:13.787Z,27.20
2023-04-27T15:10:16.439Z,27.05
2023-04-27T15:13:18.947Z,28.15
2023-04-27T15:16:21.475Z,27.35
2023-04-27T15:19:23.989Z,28.28
2023-04-27T15:22:28.566Z,27.88
2023-04-27T15:25:31.300Z,28.83
2023-04-27T15:28:34.066Z,28.18
2023-04-27T15:31:37.195Z,27.64
2023-04-27T15:34:44.388Z,26.02
2023-04-27T15:37:46.918Z,24.65
2023-04-27T15:40:49.424Z,20.76
2023-04-27T15:43:52.313Z,19.78
2023-04-27T15:46:54.857Z,19.70
2023-04-27T15:49:58.415Z,21.88
2023-04-27T15:53:01.027Z,23.80
2023-04-27T15:56:03.694Z,24.27
2023-04-27T15:59:07.127Z,24.15
2023-04-27T16:02:09.745Z,24.34
2023-04-27T16:05:12.263Z,24.94
2023-04-27T16:08:14.657Z,24.16
2023-04-27T16:11:17.281Z,25.36
2023-04-27T16:14:19.766Z,24.08
2023-04-27T16:17:23.146Z,24.55
2023-04-27T16:20:28.909Z,22.39
2023-04-27T16:23:31.441Z,22.41
2023-04-27T16:26:34.228Z,22.58
2023-04-27T16:29:36.902Z,23.79
2023-04-27T16:32:39.440Z,22.68
2023-04-27T16:35:41.976Z,22.58
2023-04-27T16:38:44.827Z,22.01
2023-04-27T16:41:47.948Z,22.52
2023-04-27T16:44:51.302Z,23.03
2023-04-27T16:47:53.802Z,22.57
2023-04-27T16:50:56.679Z,20.92
2023-04-27T16:53:59.646Z,22.37
2023-04-27T16:57:02.189Z,21.97
2023-04-27T17:00:06.594Z,21.84
2023-04-27T17:03:09.871Z,21.85
2023-04-27T17:06:12.359Z,21.08
2023-04-27T17:09:15.296Z,20.83
2023-04-27T17:12:18.301Z,21.06
2023-04-27T17:15:20.761Z,19.80
2023-04-27T17:18:23.300Z,19.50
2023-04-27T17:21:27.531Z,19.08
2023-04-27T17:24:30.269Z,18.65
2023-04-27T17:27:32.698Z,17.58
2023-04-27T17:30:35.550Z,17.11
2023-04-27T17:33:39.311Z,16.70
2023-04-27T17:36:41.818Z,16.02
2023-04-27T17:39:44.312Z,15.28
2023-04-27T17:42:47.552Z,15.00
2023-04-27T17:45:50.711Z,14.82
2023-04-27T17:48:53.165Z,14.66
2023-04-27T17:51:56.340Z,14.35
2023-04-27T17:54:59.099Z,14.31
2023-04-27T17:58:04.064Z,14.20
2023-04-27T18:01:09.131Z,14.14
2023-04-27T18:04:11.996Z,13.98
2023-04-27T18:07:14.550Z,13.92
2023-04-27T18:10:17.199Z,13.71
2023-04-27T18:13:19.673Z,13.57
2023-04-27T18:16:22.133Z,13.47
2023-04-27T18:19:25.141Z,13.42
2023-04-27T18:22:27.664Z,13.08
2023-04-27T18:25:30.058Z,12.96
2023-04-27T18:28:33.162Z,12.92
2023-04-27T18:31:36.737Z,12.74
2023-04-27T18:34:39.468Z,12.76
2023-04-27T18:37:42.203Z,12.46
2023-04-27T18:40:44.764Z,12.30
2023-04-27T18:43:47.243Z,12.21
2023-04-27T18:46:49.918Z,12.08
2023-04-27T18:49:52.775Z,11.85
2023-04-27T18:52:55.569Z,11.67
2023-04-27T18:55:58.650Z,11.59
2023-04-27T18:59:01.172Z,11.55
2023-04-27T19:02:04.042Z,11.37
2023-04-27T19:05:12.816Z,11.31
2023-04-27T19:08:16.189Z,11.24
2023-04-27T19:11:22.232Z,11.17
2023-04-27T19:14:24.944Z,11.06
2023-04-27T19:17:28.080Z,10.92
2023-04-27T19:20:30.890Z,10.89
2023-04-27T19:23:33.582Z,10.74
2023-04-27T19:26:36.730Z,10.59
2023-04-27T19:29:53.822Z,10.42
2023-04-27T19:32:56.314Z,10.38
2023-04-27T19:35:58.864Z,10.29
2023-04-27T19:39:01.757Z,10.11
2023-04-27T19:42:04.419Z,10.00
2023-04-27T19:45:07.493Z,9.81
2023-04-27T19:48:10.062Z,9.79
2023-04-27T19:51:12.547Z,9.66
2023-04-27T19:54:15.290Z,9.53
2023-04-27T19:57:18.514Z,9.47
2023-04-27T20:00:21.068Z,9.43
2023-04-27T20:03:24.470Z,9.46
2023-04-27T20:06:27.245Z,9.24
2023-04-27T20:09:29.761Z,9.14
2023-04-27T20:12:51.625Z,9.13
2023-04-27T20:15:54.984Z,9.08
2023-04-27T20:18:57.569Z,9.01
2023-04-27T20:22:02.969Z,8.90
2023-04-27T20:25:07.788Z,8.81
2023-04-27T20:28:10.411Z,8.81
2023-04-27T20:31:12.918Z,8.59
2023-04-27T20:34:24.125Z,8.50
2023-04-27T20:37:26.654Z,8.38
2023-04-27T20:40:29.500Z,8.36
2023-04-27T20:43:32.610Z,8.36
2023-04-27T20:46:35.861Z,8.30
2023-04-27T20:49:38.321Z,8.13
2023-04-27T20:52:41.073Z,8.04
2023-04-27T20:55:43.664Z,7.98
2023-04-27T20:58:46.352Z,7.87
2023-04-27T21:01:48.990Z,7.78
2023-04-27T21:04:52.076Z,7.83
2023-04-27T21:07:54.552Z,7.81
2023-04-27T21:10:57.570Z,7.52
2023-04-27T21:14:00.663Z,7.53
2023-04-27T21:17:03.199Z,7.49
2023-04-27T21:20:06.361Z,7.47
2023-04-27T21:23:08.883Z,7.39
2023-04-27T21:26:11.414Z,7.36
2023-04-27T21:29:14.066Z,7.29
2023-04-27T21:32:17.270Z,7.25
2023-04-27T21:35:19.784Z,7.16
2023-04-27T21:38:22.250Z,6.97
2023-04-27T21:41:24.746Z,7.00
2023-04-27T21:44:27.516Z,7.04
2023-04-27T21:47:30.039Z,6.89
2023-04-27T21:50:33.077Z,6.91
2023-04-27T21:53:35.582Z,6.84
2023-04-27T21:56:38.673Z,6.86
2023-04-27T21:59:41.385Z,6.84
2023-04-27T22:02:45.052Z,6.65
2023-04-27T22:05:49.069Z,6.53
2023-04-27T22:08:51.970Z,6.56
2023-04-27T22:11:54.451Z,6.30
2023-04-27T22:14:57.325Z,6.27
2023-04-27T22:17:59.800Z,6.22
2023-04-27T22:21:02.225Z,6.26
2023-04-27T22:24:04.995Z,6.24
2023-04-27T22:27:07.415Z,6.18
2023-04-27T22:30:10.403Z,6.20
2023-04-27T22:33:13.384Z,5.86
2023-04-27T22:36:16.179Z,6.01
2023-04-27T22:39:18.993Z,6.08
2023-04-27T22:42:21.462Z,5.93
2023-04-27T22:45:24.390Z,5.98
2023-04-27T22:48:27.271Z,6.03
2023-04-27T22:51:29.713Z,5.87
2023-04-27T22:54:32.134Z,5.62
2023-04-27T22:57:34.777Z,5.64
2023-04-27T23:00:37.378Z,5.68
2023-04-27T23:03:40.116Z,5.83
2023-04-27T23:06:43.415Z,5.70
2023-04-27T23:09:48.199Z,5.73
2023-04-27T23:12:50.845Z,5.65
2023-04-27T23:15:56.862Z,5.49
2023-04-27T23:18:59.419Z,5.49
2023-04-27T23:22:02.236Z,5.39
2023-04-27T23:25:04.970Z,5.39
2023-04-27T23:28:07.438Z,5.33
2023-04-27T23:31:10.566Z,5.43
2023-04-27T23:34:13.319Z,5.37
2023-04-27T23:37:16.412Z,5.33
2023-04-27T23:40:19.041Z,5.22
2023-04-27T23:43:21.694Z,5.21
2023-04-27T23:46:24.929Z,5.02
2023-04-27T23:49:27.390Z,4.97
2023-04-27T23:52:29.910Z,4.96
2023-04-27T23:55:34.751Z,4.84
2023-04-27T23:58:38.449Z,4.82
